Strona główna
METAR-TAF:

METAR-TAF

Lotnisko :

Port lotniczy Bordeaux-Mérignac

Bordeaux, Francja

Szerokość geograficzna: 44-50N, Długość geograficzna: 000-42W, wysokość: 49 m

Aktualna obserwacja pogody

Raport powstał 42 minut temu, godzina 17:30 UTC
Wiatr 7 kt od wschodnio-północny wschód, zmienny między północno-północny wschód i południowy wschód
Temperatura 30°C
Wilgotność 43%
Ciśnienie 1008 hPa
Widzialność 10 km lub więcej
Brak chmur poniżej 1500 m i brak chmur cumulonimbus

METAR: LFBD 251730Z AUTO 07007KT 020V130 CAVOK 30/16 Q1008 NOSIG

czas: 20:12 (18:12 UTC)

Prognoza

Raport powstał 7 godziny i 12 minut temu, godzina 11:00 UTC
Prognoza ważna od 25 godzina 12 UTC do 26 godzina 18 UTC
Wiatr 5 kt od wschodnio-północny wschód
Widzialność 10 km lub więcej
Brak chmur poniżej 1500 m i brak chmur cumulonimbus

TAF: LFBD 251100Z 2512/2618 06005KT CAVOK TX34/2614Z TN19/2604Z

Obserwacja i prognoza pogody dla ponad 4000 lotnisk (raport METAR i TAF).

Dostępne stacje oznaczono żółtymi i czerwonymi punktami na mapie.

Najedź kursorem aby zobaczyć nazwę stacji.

Kliknij aby zobaczyć obserwacje i prognozy pogody.

Aby zmienić mapę: kliknij na zielony przycisk z czarnym krzyżykiem, aby powiększyć; na zielony przycisk z myślnikiem, aby pomniejszyć; na zielone strzałki, aby przejść do map sąsiednich.


METAR-TAF: